Time;durP1;ratioP1;P1;durP2;ratioP2;P2;SDS_P1;SDS_P2;PMS_P1;PMS_P2;Temp;Humidity;BMP_temperature;BMP_pressure;BME280_temperature;BME280_humidity;BME280_pressure;Samples;Min_cycle;Max_cycle;Signal;HPM_P1;HPM_P2
2023/05/28 00:00:11;;;;;;;5.40;1.75;;;15.10;88.70;;;;;;5002279;28;20404;-71
2023/05/28 00:02:37;;;;;;;5.35;1.80;;;14.90;89.50;;;;;;5021499;28;20112;-70
2023/05/28 00:05:04;;;;;;;4.95;2.13;;;15.00;90.00;;;;;;5001357;28;20140;-72
2023/05/28 00:07:30;;;;;;;4.75;1.67;;;15.00;90.20;;;;;;5014726;28;20387;-71
2023/05/28 00:09:57;;;;;;;2.88;1.63;;;14.90;90.30;;;;;;5003095;28;20041;-71
2023/05/28 00:12:23;;;;;;;4.07;1.42;;;14.90;90.50;;;;;;5029841;28;20455;-72
2023/05/28 00:14:50;;;;;;;5.82;2.20;;;14.90;90.70;;;;;;4987921;28;20106;-71
2023/05/28 00:17:16;;;;;;;3.08;1.55;;;15.00;90.90;;;;;;5029177;28;20099;-72
2023/05/28 00:19:43;;;;;;;9.30;2.55;;;15.00;91.00;;;;;;5005527;28;20038;-72
2023/05/28 00:22:09;;;;;;;4.07;1.60;;;15.00;91.10;;;;;;5010327;28;20025;-72
2023/05/28 00:24:36;;;;;;;5.07;1.80;;;15.00;91.30;;;;;;5006077;28;20032;-72
2023/05/28 00:27:06;;;;;;;3.25;1.42;;;15.10;91.50;;;;;;5026826;28;20033;-72
2023/05/28 00:29:32;;;;;;;5.57;1.60;;;15.00;91.80;;;;;;5007256;28;20113;-72
2023/05/28 00:31:58;;;;;;;3.47;1.58;;;15.00;92.10;;;;;;4992395;28;20032;-72
2023/05/28 00:34:24;;;;;;;5.00;1.95;;;15.00;92.40;;;;;;5007460;28;20104;-71
2023/05/28 00:36:51;;;;;;;2.78;1.45;;;15.00;92.80;;;;;;5025067;28;20041;-71
2023/05/28 00:39:18;;;;;;;5.50;2.35;;;15.00;93.00;;;;;;5008629;28;20044;-71
2023/05/28 00:41:44;;;;;;;6.97;1.77;;;15.00;93.20;;;;;;5016158;28;20029;-71
2023/05/28 00:44:10;;;;;;;4.78;1.55;;;14.90;93.30;;;;;;5025242;28;20030;-71
2023/05/28 00:46:40;;;;;;;7.43;1.83;;;15.00;93.40;;;;;;5006164;28;20115;-72
2023/05/28 00:49:05;;;;;;;4.85;1.88;;;15.00;93.70;;;;;;5008586;28;20385;-72
2023/05/28 00:51:33;;;;;;;3.40;1.50;;;15.00;94.00;;;;;;5006285;28;20038;-71
2023/05/28 00:53:59;;;;;;;3.63;1.77;;;15.00;94.40;;;;;;5008292;28;20119;-71
2023/05/28 00:56:26;;;;;;;5.32;1.88;;;14.90;94.80;;;;;;5006035;28;20044;-72
2023/05/28 00:58:53;;;;;;;10.05;2.63;;;14.90;95.10;;;;;;5025141;28;20029;-72
2023/05/28 01:01:20;;;;;;;6.70;1.50;;;14.90;95.60;;;;;;4990068;28;20036;-71
2023/05/28 01:03:46;;;;;;;3.50;1.70;;;14.90;95.90;;;;;;5007651;28;20092;-71
2023/05/28 01:06:14;;;;;;;5.30;1.75;;;14.70;96.30;;;;;;4987412;28;20041;-71
2023/05/28 01:08:41;;;;;;;5.20;1.60;;;14.50;97.40;;;;;;4980021;28;20034;-71
2023/05/28 01:11:13;;;;;;;4.95;1.90;;;14.50;97.80;;;;;;5000681;28;20033;-72
2023/05/28 01:13:40;;;;;;;6.47;2.47;;;14.50;98.00;;;;;;5024310;28;20170;-72
2023/05/28 01:16:06;;;;;;;8.10;1.75;;;14.50;98.10;;;;;;4989804;28;20040;-71
2023/05/28 01:18:33;;;;;;;8.00;1.60;;;14.50;98.10;;;;;;5007506;28;20025;-71
2023/05/28 01:21:02;;;;;;;6.43;1.48;;;14.50;97.90;;;;;;4989625;28;20038;-73
2023/05/28 01:23:32;;;;;;;4.43;1.00;;;14.50;98.00;;;;;;5007027;28;20028;-73
2023/05/28 01:25:59;;;;;;;8.15;1.40;;;14.60;98.00;;;;;;5023102;28;20033;-73
2023/05/28 01:28:25;;;;;;;2.70;1.58;;;14.80;97.40;;;;;;4991080;28;20036;-73
2023/05/28 01:30:52;;;;;;;4.65;1.60;;;14.70;97.50;;;;;;5006008;28;20496;-73
2023/05/28 01:33:21;;;;;;;2.22;1.30;;;14.70;97.70;;;;;;5019977;28;20105;-73
2023/05/28 01:35:47;;;;;;;5.95;1.65;;;14.60;98.00;;;;;;5005891;28;20559;-73
2023/05/28 01:38:15;;;;;;;4.50;1.85;;;14.60;98.60;;;;;;5008599;28;20034;-73
2023/05/28 01:40:46;;;;;;;3.55;1.98;;;14.60;99.00;;;;;;5005701;28;20488;-73
2023/05/28 01:43:12;;;;;;;5.10;1.90;;;14.50;99.30;;;;;;5008282;28;20433;-73
2023/05/28 01:45:39;;;;;;;5.65;2.10;;;14.50;99.70;;;;;;5004903;28;20043;-74
2023/05/28 01:48:06;;;;;;;6.45;2.33;;;14.40;99.90;;;;;;5006213;28;20110;-73
2023/05/28 01:50:33;;;;;;;6.18;2.17;;;14.40;99.90;;;;;;5004344;28;20123;-73
2023/05/28 01:53:00;;;;;;;5.53;1.80;;;14.40;99.90;;;;;;5026700;28;20057;-73
2023/05/28 01:55:26;;;;;;;5.13;1.65;;;14.30;99.90;;;;;;5020521;28;20064;-73
2023/05/28 01:57:51;;;;;;;16.15;1.98;;;14.40;99.90;;;;;;5010175;28;20061;-73
2023/05/28 02:00:18;;;;;;;5.28;1.55;;;14.30;99.90;;;;;;5019514;28;20401;-73
2023/05/28 02:02:44;;;;;;;3.17;1.42;;;14.20;99.90;;;;;;4974275;28;20041;-73
2023/05/28 02:05:10;;;;;;;3.67;2.47;;;14.10;99.90;;;;;;5019471;28;20037;-73
2023/05/28 02:07:36;;;;;;;4.78;2.65;;;14.10;99.90;;;;;;4995701;28;20370;-73
2023/05/28 02:10:02;;;;;;;4.15;1.83;;;14.10;99.90;;;;;;5001527;28;20036;-72
2023/05/28 02:12:28;;;;;;;6.07;1.83;;;14.00;99.90;;;;;;5011155;28;20040;-72
2023/05/28 02:14:54;;;;;;;4.70;2.03;;;13.90;99.90;;;;;;5005514;28;20033;-72
2023/05/28 02:17:20;;;;;;;4.97;2.42;;;13.90;99.90;;;;;;5013222;28;20037;-73
2023/05/28 02:19:46;;;;;;;6.32;2.55;;;13.80;99.90;;;;;;5020189;28;20038;-73
2023/05/28 02:22:11;;;;;;;5.07;2.15;;;13.70;99.90;;;;;;5008144;28;20090;-73
2023/05/28 02:24:41;;;;;;;7.13;2.17;;;13.60;99.90;;;;;;5021089;28;20034;-73
2023/05/28 02:27:07;;;;;;;5.07;2.13;;;13.70;99.90;;;;;;5008195;28;20511;-73
2023/05/28 02:29:34;;;;;;;8.13;2.45;;;13.70;99.90;;;;;;5004879;28;20146;-73
2023/05/28 02:32:02;;;;;;;5.32;2.38;;;13.60;99.90;;;;;;5025211;28;20052;-73
2023/05/28 02:34:31;;;;;;;13.40;3.67;;;13.60;99.90;;;;;;5005250;28;20029;-73
2023/05/28 02:36:56;;;;;;;5.22;2.40;;;13.50;99.90;;;;;;5023998;28;20025;-74
2023/05/28 02:39:23;;;;;;;4.65;2.22;;;13.50;99.90;;;;;;5022822;28;20542;-73
2023/05/28 02:41:49;;;;;;;6.50;2.03;;;13.50;99.90;;;;;;5005493;28;20143;-73
2023/05/28 02:44:15;;;;;;;8.57;2.42;;;13.50;99.90;;;;;;5006355;28;20112;-73
2023/05/28 02:46:41;;;;;;;3.75;1.60;;;13.40;99.90;;;;;;5022098;28;20033;-73
2023/05/28 02:49:07;;;;;;;6.72;2.05;;;13.40;99.90;;;;;;5023153;28;20025;-74
2023/05/28 02:51:33;;;;;;;7.78;2.15;;;13.40;99.90;;;;;;5004595;28;20031;-73
2023/05/28 02:53:58;;;;;;;11.80;2.65;;;13.30;99.90;;;;;;5023260;28;20033;-74
2023/05/28 02:56:25;;;;;;;5.25;2.00;;;13.30;99.90;;;;;;5021881;28;20393;-74
2023/05/28 02:58:52;;;;;;;6.40;2.28;;;13.20;99.90;;;;;;5023238;28;20034;-74
2023/05/28 03:01:17;;;;;;;6.45;2.58;;;13.20;99.90;;;;;;5004370;28;20021;-73
2023/05/28 03:03:43;;;;;;;4.65;1.90;;;13.20;99.90;;;;;;5023251;28;20037;-74
2023/05/28 03:06:09;;;;;;;41.42;15.00;;;13.10;99.90;;;;;;5004339;28;20034;-74
2023/05/28 03:08:35;;;;;;;6.35;2.60;;;13.20;99.90;;;;;;5022962;28;20030;-74
2023/05/28 03:11:00;;;;;;;4.80;1.98;;;13.10;99.90;;;;;;5026273;23;20505;-72
2023/05/28 03:13:26;;;;;;;6.40;1.80;;;13.10;99.90;;;;;;5025350;28;20547;-72
2023/05/28 03:15:52;;;;;;;5.13;2.47;;;13.10;99.90;;;;;;5015182;28;20043;-73
2023/05/28 03:18:17;;;;;;;7.60;2.13;;;13.10;99.90;;;;;;5021634;28;20079;-73
2023/05/28 03:20:43;;;;;;;6.80;1.92;;;13.10;99.90;;;;;;5029368;28;20132;-73
2023/05/28 03:23:09;;;;;;;5.25;1.95;;;13.10;99.90;;;;;;5041107;28;20468;-72
2023/05/28 03:25:35;;;;;;;5.30;2.08;;;13.10;99.90;;;;;;5039925;28;20042;-73
2023/05/28 03:28:00;;;;;;;8.75;2.35;;;13.00;99.90;;;;;;5041256;28;20107;-73
2023/05/28 03:30:26;;;;;;;7.80;3.08;;;13.00;99.90;;;;;;5042500;28;20416;-72
2023/05/28 03:32:52;;;;;;;6.95;2.05;;;13.00;99.90;;;;;;5041764;28;20025;-73
2023/05/28 03:35:18;;;;;;;35.92;20.75;;;12.90;99.90;;;;;;5043703;28;20030;-73
2023/05/28 03:37:44;;;;;;;4.55;2.08;;;12.90;99.90;;;;;;5012610;28;20558;-73
2023/05/28 03:40:10;;;;;;;3.63;2.03;;;12.80;99.90;;;;;;4996493;28;20032;-73
2023/05/28 03:42:37;;;;;;;3.80;1.65;;;12.80;99.90;;;;;;5042775;28;20037;-73
2023/05/28 03:45:05;;;;;;;6.70;3.53;;;12.80;99.90;;;;;;5029535;28;20037;-73
2023/05/28 03:47:32;;;;;;;95.55;31.75;;;12.70;99.90;;;;;;5041243;28;20740;-73
2023/05/28 03:49:58;;;;;;;7.45;3.00;;;12.60;99.90;;;;;;5049046;28;20028;-73
2023/05/28 03:52:25;;;;;;;7.68;2.67;;;12.60;99.90;;;;;;5021567;28;20440;-73
2023/05/28 03:54:51;;;;;;;3.40;1.52;;;12.60;99.90;;;;;;5051160;28;20025;-73
2023/05/28 03:57:16;;;;;;;5.57;2.05;;;12.60;99.90;;;;;;5037025;28;20493;-73
2023/05/28 03:59:42;;;;;;;6.88;1.92;;;12.60;99.90;;;;;;5034707;28;20068;-74
2023/05/28 04:02:08;;;;;;;15.90;2.65;;;12.40;99.90;;;;;;5036501;28;20041;-74
2023/05/28 04:04:34;;;;;;;7.03;2.42;;;12.50;99.90;;;;;;5033421;28;20051;-74
2023/05/28 04:07:00;;;;;;;4.80;2.15;;;12.50;99.90;;;;;;5037089;28;20033;-73
2023/05/28 04:09:27;;;;;;;5.65;2.20;;;12.50;99.90;;;;;;5050309;28;20051;-74
2023/05/28 04:11:53;;;;;;;6.05;1.73;;;12.50;99.90;;;;;;5038296;28;20033;-73
2023/05/28 04:14:19;;;;;;;5.63;2.42;;;12.50;99.90;;;;;;5029758;28;20126;-74
2023/05/28 04:16:44;;;;;;;5.07;2.20;;;12.60;99.90;;;;;;5035430;28;20545;-73
2023/05/28 04:19:10;;;;;;;5.00;2.13;;;12.50;99.90;;;;;;5048009;28;20380;-73
2023/05/28 04:21:36;;;;;;;2.60;1.48;;;12.50;99.90;;;;;;5041010;28;20048;-72
2023/05/28 04:24:03;;;;;;;6.57;1.52;;;12.50;99.90;;;;;;5046487;28;20118;-73
2023/05/28 04:26:29;;;;;;;5.97;2.88;;;12.50;99.90;;;;;;5041106;28;20504;-72
2023/05/28 04:28:55;;;;;;;7.47;2.03;;;12.50;99.90;;;;;;5045761;28;20029;-73
2023/05/28 04:31:21;;;;;;;5.75;2.13;;;12.60;99.90;;;;;;5042220;28;20523;-74
2023/05/28 04:33:47;;;;;;;5.38;2.33;;;12.50;99.90;;;;;;5043998;28;20492;-73
2023/05/28 04:36:13;;;;;;;9.20;2.35;;;12.60;99.90;;;;;;5042347;28;20036;-73
2023/05/28 04:38:41;;;;;;;4.40;1.67;;;12.60;99.90;;;;;;5026150;28;20040;-74
2023/05/28 04:41:06;;;;;;;4.25;1.67;;;12.60;99.90;;;;;;5025848;28;20086;-73
2023/05/28 04:43:33;;;;;;;4.18;1.77;;;12.60;99.90;;;;;;5025664;28;20438;-73
2023/05/28 04:46:00;;;;;;;5.32;2.13;;;12.60;99.90;;;;;;5024229;28;20389;-74
2023/05/28 04:48:26;;;;;;;5.70;2.38;;;12.60;99.90;;;;;;5025836;28;20075;-73
2023/05/28 04:50:53;;;;;;;4.57;1.73;;;12.70;99.90;;;;;;5046492;28;20451;-74
2023/05/28 04:53:20;;;;;;;4.47;2.25;;;12.70;99.90;;;;;;5025409;28;20041;-72
2023/05/28 04:55:46;;;;;;;10.10;2.40;;;12.80;99.90;;;;;;5042167;28;20044;-72
2023/05/28 04:58:11;;;;;;;2.88;1.55;;;12.80;99.90;;;;;;5043548;28;20032;-73
2023/05/28 05:00:37;;;;;;;10.52;2.13;;;12.90;99.90;;;;;;5045802;28;20487;-73
2023/05/28 05:03:03;;;;;;;5.47;2.03;;;12.90;99.90;;;;;;5043057;28;20056;-73
2023/05/28 05:05:30;;;;;;;5.80;1.88;;;12.90;99.90;;;;;;5045275;28;20536;-73
2023/05/28 05:07:56;;;;;;;4.85;1.77;;;13.00;99.90;;;;;;5043261;28;20448;-73
2023/05/28 05:10:22;;;;;;;5.03;1.85;;;12.80;99.90;;;;;;5042029;28;20033;-73
2023/05/28 05:12:48;;;;;;;5.97;2.10;;;12.90;99.90;;;;;;5025517;28;20025;-73
2023/05/28 05:15:14;;;;;;;4.63;1.52;;;12.90;99.90;;;;;;5037636;28;20029;-73
2023/05/28 05:17:40;;;;;;;4.20;2.20;;;13.10;99.90;;;;;;5024836;28;20028;-73
2023/05/28 05:20:08;;;;;;;5.82;1.80;;;13.20;99.90;;;;;;5047230;28;20038;-73
2023/05/28 05:22:34;;;;;;;9.18;2.13;;;13.30;99.90;;;;;;5041578;28;20033;-73
2023/05/28 05:25:00;;;;;;;7.85;1.77;;;13.30;99.90;;;;;;5046665;28;20036;-73
2023/05/28 05:27:28;;;;;;;3.55;1.60;;;13.30;99.90;;;;;;5037617;28;20030;-73
2023/05/28 05:29:53;;;;;;;7.53;2.65;;;13.40;99.90;;;;;;5049248;28;20025;-73
2023/05/28 05:32:19;;;;;;;4.07;1.50;;;13.50;99.90;;;;;;5039161;28;20035;-72
2023/05/28 05:34:45;;;;;;;5.43;2.05;;;13.60;99.90;;;;;;5053518;28;20087;-73
2023/05/28 05:37:11;;;;;;;6.75;1.90;;;13.70;99.90;;;;;;5022478;28;20073;-72
2023/05/28 05:39:36;;;;;;;4.40;1.65;;;13.70;99.90;;;;;;5034530;28;20480;-73
2023/05/28 05:42:03;;;;;;;5.65;1.73;;;13.80;99.90;;;;;;5015970;28;20041;-72
2023/05/28 05:44:28;;;;;;;2.53;1.38;;;13.90;99.90;;;;;;5046678;28;20503;-72
2023/05/28 05:46:54;;;;;;;3.15;2.03;;;14.00;99.90;;;;;;5039509;28;20033;-72
2023/05/28 05:49:20;;;;;;;5.35;1.52;;;14.00;99.90;;;;;;5047563;28;20045;-72
2023/05/28 05:51:46;;;;;;;5.70;1.60;;;14.10;99.90;;;;;;5037429;28;20029;-72
2023/05/28 05:54:12;;;;;;;4.97;1.95;;;14.30;99.90;;;;;;5046112;28;20043;-73
2023/05/28 05:56:37;;;;;;;14.52;2.28;;;14.40;99.90;;;;;;5038309;28;20495;-72
2023/05/28 05:59:03;;;;;;;3.83;2.05;;;14.40;99.90;;;;;;5045184;28;20044;-72
2023/05/28 06:01:30;;;;;;;6.40;2.20;;;14.50;99.90;;;;;;5031683;28;20042;-72
2023/05/28 06:03:56;;;;;;;3.88;1.42;;;14.60;99.90;;;;;;5036565;28;20022;-72
2023/05/28 06:06:21;;;;;;;6.03;1.80;;;14.70;99.90;;;;;;5020571;28;20078;-72
2023/05/28 06:08:47;;;;;;;3.00;1.23;;;14.80;99.90;;;;;;5043088;28;20120;-72
2023/05/28 06:11:14;;;;;;;2.70;1.40;;;14.90;99.90;;;;;;5027073;28;20037;-73
2023/05/28 06:13:39;;;;;;;4.07;1.70;;;14.90;99.90;;;;;;5041890;28;20155;-73
2023/05/28 06:16:06;;;;;;;4.35;1.65;;;15.00;99.90;;;;;;5044265;28;20104;-72
2023/05/28 06:18:32;;;;;;;4.40;1.63;;;15.10;99.90;;;;;;5042284;28;20036;-73
2023/05/28 06:20:58;;;;;;;4.70;1.58;;;15.10;99.90;;;;;;5040979;28;20429;-73
2023/05/28 06:23:24;;;;;;;3.47;1.83;;;15.30;99.90;;;;;;5041967;28;20033;-73
2023/05/28 06:25:50;;;;;;;6.22;1.95;;;15.40;99.90;;;;;;5040532;28;20078;-73
2023/05/28 06:28:16;;;;;;;4.30;1.83;;;15.50;99.90;;;;;;5041951;28;20029;-72
2023/05/28 06:30:43;;;;;;;7.40;2.05;;;15.70;99.90;;;;;;5040979;28;20091;-72
2023/05/28 06:33:09;;;;;;;6.05;1.98;;;15.80;99.90;;;;;;5023949;28;20115;-73
2023/05/28 06:35:35;;;;;;;4.95;1.67;;;15.80;99.90;;;;;;5040392;28;20101;-72
2023/05/28 06:38:01;;;;;;;4.35;1.38;;;15.90;99.90;;;;;;5042022;28;20052;-73
2023/05/28 06:40:27;;;;;;;5.72;2.03;;;16.00;99.90;;;;;;5023693;28;20030;-72
2023/05/28 06:42:53;;;;;;;4.03;2.15;;;16.10;99.90;;;;;;5023942;28;20553;-72
2023/05/28 06:45:20;;;;;;;4.47;1.50;;;16.20;99.90;;;;;;5023250;28;20046;-72
2023/05/28 06:47:47;;;;;;;8.05;1.92;;;16.30;99.90;;;;;;5024596;28;20511;-72
2023/05/28 06:50:13;;;;;;;2.85;1.17;;;16.40;99.90;;;;;;5042119;28;20048;-72
2023/05/28 06:52:40;;;;;;;4.40;1.98;;;16.40;99.90;;;;;;5040620;28;20469;-73
2023/05/28 06:55:08;;;;;;;8.38;2.20;;;16.50;99.90;;;;;;5044172;28;20045;-73
2023/05/28 06:57:36;;;;;;;3.17;1.40;;;16.60;99.90;;;;;;5036807;28;20087;-72
2023/05/28 07:00:09;;;;;;;6.97;1.63;;;16.70;99.90;;;;;;5027469;28;20037;-73
2023/05/28 07:02:35;;;;;;;4.38;1.75;;;16.90;99.90;;;;;;5022271;28;20038;-73
2023/05/28 07:05:04;;;;;;;4.65;1.60;;;16.90;99.90;;;;;;5045353;28;20037;-73
2023/05/28 07:07:31;;;;;;;3.85;1.60;;;16.90;99.90;;;;;;5037777;28;20040;-72
2023/05/28 07:09:57;;;;;;;6.68;1.55;;;17.00;99.90;;;;;;5050763;28;20036;-73
2023/05/28 07:12:23;;;;;;;6.63;1.70;;;17.00;99.90;;;;;;5042264;28;20129;-72
2023/05/28 07:14:48;;;;;;;7.07;1.98;;;17.10;99.90;;;;;;5052536;28;20028;-72
2023/05/28 07:17:14;;;;;;;4.70;2.25;;;17.20;99.90;;;;;;5041423;28;20036;-73
2023/05/28 07:19:40;;;;;;;4.85;1.75;;;17.30;99.90;;;;;;5053244;28;20029;-72
2023/05/28 07:22:06;;;;;;;5.05;1.90;;;17.40;99.90;;;;;;5037553;28;20424;-73
2023/05/28 07:24:31;;;;;;;8.23;2.10;;;17.50;99.90;;;;;;5051575;28;20060;-72
2023/05/28 07:26:57;;;;;;;7.43;2.40;;;17.60;99.90;;;;;;5020615;28;20044;-72
2023/05/28 07:29:23;;;;;;;4.05;1.55;;;17.80;99.80;;;;;;5030259;28;20036;-72
2023/05/28 07:31:49;;;;;;;4.07;1.73;;;17.90;99.50;;;;;;5039667;28;20029;-73
2023/05/28 07:34:14;;;;;;;5.10;2.15;;;18.00;99.30;;;;;;5049351;28;20031;-73
2023/05/28 07:36:40;;;;;;;5.18;1.80;;;18.30;98.70;;;;;;5044479;28;20033;-73
2023/05/28 07:39:06;;;;;;;7.55;2.38;;;18.40;98.50;;;;;;5048206;28;20032;-73
2023/05/28 07:41:31;;;;;;;5.82;2.28;;;18.20;98.30;;;;;;5026602;28;20029;-72
2023/05/28 07:43:57;;;;;;;6.75;2.08;;;18.40;97.90;;;;;;5046880;28;20036;-72
2023/05/28 07:46:23;;;;;;;4.35;1.70;;;18.50;96.90;;;;;;5042401;28;20053;-73
2023/05/28 07:48:50;;;;;;;7.20;1.60;;;18.50;97.10;;;;;;5045662;28;20565;-72
2023/05/28 07:51:17;;;;;;;7.47;1.75;;;18.70;97.40;;;;;;5043512;28;20115;-72
2023/05/28 07:53:43;;;;;;;9.80;2.08;;;18.80;96.90;;;;;;5026684;28;20387;-73
2023/05/28 07:56:09;;;;;;;6.28;2.10;;;19.00;96.50;;;;;;5043063;28;20033;-73
2023/05/28 07:58:35;;;;;;;4.45;1.85;;;19.10;96.50;;;;;;5044279;28;20065;-73
2023/05/28 08:01:02;;;;;;;2.83;1.45;;;18.90;96.60;;;;;;5043103;28;20047;-73
2023/05/28 08:03:27;;;;;;;3.53;1.70;;;18.90;96.70;;;;;;5026351;28;20036;-72
2023/05/28 08:05:54;;;;;;;5.13;1.52;;;19.10;96.40;;;;;;5025662;28;20434;-74
2023/05/28 08:08:20;;;;;;;2.47;1.38;;;19.20;96.00;;;;;;5044433;28;20029;-72
2023/05/28 08:10:46;;;;;;;4.43;1.52;;;19.30;96.00;;;;;;5046656;28;20033;-73
2023/05/28 08:13:12;;;;;;;6.32;1.48;;;19.40;95.30;;;;;;5043916;28;20021;-71
2023/05/28 08:15:38;;;;;;;6.57;2.13;;;19.50;95.20;;;;;;5025500;28;20131;-73
2023/05/28 08:18:03;;;;;;;3.97;1.75;;;19.70;95.50;;;;;;5043978;28;20037;-72
2023/05/28 08:20:29;;;;;;;6.60;2.03;;;19.80;94.70;;;;;;5024497;28;20034;-72
2023/05/28 08:22:55;;;;;;;3.40;1.33;;;19.90;95.20;;;;;;5044038;28;20044;-73
2023/05/28 08:25:21;;;;;;;3.33;1.95;;;20.00;95.00;;;;;;5043020;28;20058;-71
2023/05/28 08:27:47;;;;;;;3.72;1.92;;;20.10;94.70;;;;;;5043623;28;20029;-72
2023/05/28 08:30:13;;;;;;;3.47;1.50;;;20.10;94.60;;;;;;5044636;28;20036;-72
2023/05/28 08:32:39;;;;;;;6.63;1.67;;;20.30;94.40;;;;;;5048508;28;20044;-72
2023/05/28 08:35:06;;;;;;;6.07;2.13;;;20.50;93.80;;;;;;5029016;28;20417;-72
2023/05/28 08:37:32;;;;;;;4.80;1.80;;;20.50;93.60;;;;;;5040657;28;20033;-72
2023/05/28 08:39:58;;;;;;;5.28;1.98;;;20.60;94.00;;;;;;5030213;28;20031;-72
2023/05/28 08:42:23;;;;;;;4.78;1.75;;;20.70;93.60;;;;;;5038028;28;20408;-73
2023/05/28 08:44:49;;;;;;;6.15;2.75;;;20.80;93.50;;;;;;5032685;28;20471;-72
2023/05/28 08:47:16;;;;;;;5.25;1.60;;;20.80;93.60;;;;;;5018543;28;20033;-72
2023/05/28 08:49:50;;;;;;;5.97;1.70;;;20.90;93.90;;;;;;5050343;28;20044;-72
2023/05/28 08:52:18;;;;;;;5.07;2.03;;;21.20;93.40;;;;;;5018953;28;20367;-72
2023/05/28 08:54:45;;;;;;;7.95;2.05;;;21.20;92.90;;;;;;4994992;28;20436;-73
2023/05/28 08:57:11;;;;;;;4.60;1.85;;;21.20;93.20;;;;;;5036294;28;20057;-73
2023/05/28 08:59:37;;;;;;;5.47;1.40;;;21.30;92.40;;;;;;5033282;28;20051;-73
2023/05/28 09:02:03;;;;;;;4.88;1.67;;;21.50;92.30;;;;;;5015759;28;20113;-73
2023/05/28 09:04:29;;;;;;;6.40;2.60;;;21.60;92.60;;;;;;5013060;28;20127;-73
2023/05/28 09:06:56;;;;;;;3.45;1.60;;;21.60;92.80;;;;;;5015936;28;20030;-72
2023/05/28 09:09:23;;;;;;;4.65;2.05;;;21.70;92.60;;;;;;5030857;28;20027;-73
2023/05/28 09:11:48;;;;;;;5.22;1.90;;;21.80;91.80;;;;;;5037348;28;20033;-73
2023/05/28 09:14:19;;;;;;;5.20;1.80;;;22.00;92.30;;;;;;5013233;23;20101;-80
2023/05/28 09:16:45;;;;;;;3.35;1.35;;;22.10;92.20;;;;;;4988154;28;20083;-80
2023/05/28 09:19:15;;;;;;;7.85;1.50;;;22.30;91.40;;;;;;4978444;28;20037;-80
2023/05/28 09:21:57;;;;;;;2.63;1.30;;;22.50;89.90;;;;;;4983360;28;20027;-80
2023/05/28 09:24:26;;;;;;;6.85;2.63;;;22.60;89.70;;;;;;4989229;28;20415;-79
2023/05/28 09:26:57;;;;;;;11.25;3.88;;;22.30;90.30;;;;;;4977971;28;20043;-79
2023/05/28 09:29:26;;;;;;;8.00;1.92;;;22.40;90.40;;;;;;4979077;28;20038;-80
2023/05/28 09:31:57;;;;;;;4.40;2.20;;;22.60;90.80;;;;;;4983703;28;20098;-80
2023/05/28 09:34:31;;;;;;;5.93;1.92;;;22.70;90.60;;;;;;4988183;28;20034;-80
2023/05/28 09:37:04;;;;;;;5.60;1.48;;;22.90;87.30;;;;;;4984458;28;20121;-80
2023/05/28 09:39:31;;;;;;;7.57;1.73;;;23.10;87.60;;;;;;4986728;28;20044;-80
2023/05/28 09:42:09;;;;;;;5.45;1.63;;;23.30;89.40;;;;;;4985753;28;20034;-80
2023/05/28 09:44:36;;;;;;;6.55;2.38;;;23.40;87.60;;;;;;4986193;28;20038;-79
2023/05/28 09:47:22;;;;;;;3.65;1.65;;;23.40;86.40;;;;;;4986025;28;20031;-80
2023/05/28 09:49:49;;;;;;;2.95;1.63;;;23.60;85.40;;;;;;4984437;28;20047;-80
2023/05/28 09:52:22;;;;;;;3.92;1.55;;;23.70;84.70;;;;;;4987915;28;20046;-79
2023/05/28 09:54:58;;;;;;;5.22;1.48;;;23.90;84.20;;;;;;4984459;28;20022;-80
2023/05/28 09:57:29;;;;;;;3.30;1.33;;;24.00;82.30;;;;;;4989043;28;20445;-80
2023/05/28 09:59:56;;;;;;;5.10;1.75;;;24.10;79.30;;;;;;4983178;28;20041;-79
2023/05/28 10:02:50;;;;;;;3.88;1.75;;;24.30;79.90;;;;;;4988794;28;20435;-80
2023/05/28 10:05:19;;;;;;;5.07;1.63;;;24.50;80.10;;;;;;4980342;28;20094;-79
2023/05/28 10:07:48;;;;;;;7.75;1.80;;;24.60;79.00;;;;;;4952407;29;20469;-80
2023/05/28 10:10:15;;;;;;;5.60;2.00;;;24.40;78.80;;;;;;4977014;28;20037;-80
2023/05/28 10:12:42;;;;;;;4.55;1.73;;;24.60;78.00;;;;;;4989841;28;20453;-79
2023/05/28 10:15:08;;;;;;;4.13;2.17;;;24.80;75.80;;;;;;4980986;28;20030;-79
2023/05/28 10:17:35;;;;;;;4.80;1.35;;;24.90;75.00;;;;;;4988925;28;20117;-79
2023/05/28 10:20:04;;;;;;;4.85;1.67;;;24.90;74.40;;;;;;4981995;28;20034;-80
2023/05/28 10:22:30;;;;;;;5.65;2.03;;;24.60;76.20;;;;;;4989299;28;20034;-78
2023/05/28 10:24:57;;;;;;;4.75;1.63;;;25.10;75.00;;;;;;4982883;28;20030;-78
2023/05/28 10:27:31;;;;;;;4.82;1.60;;;25.40;74.30;;;;;;4987208;28;20390;-79
2023/05/28 10:29:56;;;;;;;6.75;1.70;;;25.30;72.30;;;;;;4983941;28;20031;-80
2023/05/28 10:32:22;;;;;;;7.32;2.15;;;25.10;71.90;;;;;;4988268;28;20500;-79
2023/05/28 10:34:48;;;;;;;4.90;1.90;;;24.70;72.90;;;;;;4983561;28;20110;-80
2023/05/28 10:37:23;;;;;;;3.08;1.52;;;24.50;73.30;;;;;;4987106;28;20034;-80
2023/05/28 10:39:48;;;;;;;6.75;1.77;;;24.80;73.40;;;;;;4984518;28;20570;-80
2023/05/28 10:42:17;;;;;;;6.13;1.55;;;25.20;74.70;;;;;;4986427;28;20121;-80
2023/05/28 10:45:06;;;;;;;7.28;1.60;;;25.10;71.60;;;;;;4987626;28;20046;-80
2023/05/28 10:47:34;;;;;;;4.53;1.55;;;25.50;72.60;;;;;;4992822;28;20042;-80
2023/05/28 10:50:20;;;;;;;2.70;1.40;;;25.70;70.50;;;;;;4985542;28;20109;-80
2023/05/28 10:53:06;;;;;;;5.53;1.52;;;25.80;70.20;;;;;;4956443;29;20027;-78
2023/05/28 10:55:49;;;;;;;2.55;1.33;;;25.90;70.20;;;;;;4984305;28;20058;-79
2023/05/28 10:58:43;;;;;;;5.65;1.95;;;25.70;69.20;;;;;;4991131;28;20045;-79
2023/05/28 11:01:12;;;;;;;7.15;1.48;;;26.00;69.30;;;;;;4979115;28;20034;-79
2023/05/28 11:03:51;;;;;;;5.07;1.83;;;26.30;68.40;;;;;;4977136;28;20042;-79
2023/05/28 11:06:17;;;;;;;6.57;2.00;;;26.30;69.80;;;;;;4986435;28;20045;-79
2023/05/28 11:08:52;;;;;;;3.67;1.58;;;26.90;69.10;;;;;;4991252;28;20519;-79
2023/05/28 11:11:18;;;;;;;3.22;1.40;;;26.60;67.00;;;;;;4986543;28;20030;-79
2023/05/28 11:13:47;;;;;;;6.95;2.30;;;26.60;67.70;;;;;;4990959;28;20041;-79
2023/05/28 11:16:16;;;;;;;2.78;1.40;;;26.70;67.30;;;;;;4985208;28;20390;-80
2023/05/28 11:19:05;;;;;;;4.53;1.48;;;26.60;67.30;;;;;;4991746;28;20528;-79
2023/05/28 11:21:32;;;;;;;3.80;1.50;;;26.50;66.70;;;;;;4984789;28;20108;-78
2023/05/28 11:24:05;;;;;;;4.13;1.70;;;26.40;67.30;;;;;;4991441;28;20054;-79
2023/05/28 11:26:32;;;;;;;2.58;1.20;;;26.50;68.20;;;;;;4986208;28;20490;-79
2023/05/28 11:28:58;;;;;;;3.88;1.75;;;26.70;66.10;;;;;;4991558;28;20046;-79
2023/05/28 11:31:24;;;;;;;4.03;1.48;;;27.20;65.80;;;;;;4986261;28;20145;-79
2023/05/28 11:33:51;;;;;;;2.80;1.55;;;27.00;63.90;;;;;;4974726;28;20034;-79
2023/05/28 11:36:19;;;;;;;2.67;1.13;;;27.10;63.20;;;;;;4984831;28;20030;-79
2023/05/28 11:38:45;;;;;;;5.10;2.08;;;27.40;66.40;;;;;;4990899;28;20060;-79
2023/05/28 11:41:10;;;;;;;2.83;1.48;;;26.70;65.90;;;;;;4984778;28;20113;-79
2023/05/28 11:43:36;;;;;;;9.10;1.75;;;26.80;65.40;;;;;;4990635;28;20467;-80
2023/05/28 11:46:05;;;;;;;3.55;1.52;;;26.50;63.80;;;;;;4985762;28;20034;-79
2023/05/28 11:48:38;;;;;;;5.50;1.65;;;26.40;62.80;;;;;;4989397;28;20090;-79
2023/05/28 11:51:05;;;;;;;3.17;1.63;;;27.20;64.00;;;;;;4985858;28;20141;-78
2023/05/28 11:53:42;;;;;;;2.88;1.27;;;27.50;62.40;;;;;;4989607;28;20117;-79
2023/05/28 11:56:12;;;;;;;3.50;1.42;;;28.20;61.50;;;;;;4984337;28;20061;-80
2023/05/28 11:58:44;;;;;;;5.15;1.08;;;28.30;59.90;;;;;;4991232;28;20026;-80
2023/05/28 12:01:15;;;;;;;3.97;1.45;;;28.60;60.40;;;;;;4984463;28;20042;-78
2023/05/28 12:03:41;;;;;;;5.05;2.28;;;28.80;60.40;;;;;;4974257;28;20030;-79
2023/05/28 12:06:07;;;;;;;5.20;1.77;;;29.20;59.60;;;;;;4985254;28;20489;-78
2023/05/28 12:08:33;;;;;;;4.03;1.15;;;29.00;57.50;;;;;;4990253;28;20077;-79
2023/05/28 12:11:02;;;;;;;7.40;1.90;;;27.80;58.20;;;;;;4985663;28;20058;-79
2023/05/28 12:13:35;;;;;;;4.13;1.57;;;28.40;59.00;;;;;;4990648;28;20026;-80
2023/05/28 12:16:09;;;;;;;3.13;1.20;;;28.00;57.50;;;;;;4985394;28;20368;-80
2023/05/28 12:18:42;;;;;;;3.78;1.50;;;28.20;57.00;;;;;;4990834;28;20035;-80
2023/05/28 12:21:18;;;;;;;2.45;1.10;;;28.10;58.50;;;;;;4985539;28;20030;-80
2023/05/28 12:23:45;;;;;;;3.67;1.50;;;28.70;56.60;;;;;;4989649;28;20054;-80
2023/05/28 12:26:14;;;;;;;3.75;1.65;;;28.70;57.00;;;;;;4985340;28;20036;-80
2023/05/28 12:28:41;;;;;;;6.00;2.05;;;29.10;57.00;;;;;;4991105;28;20131;-80
2023/05/28 12:31:08;;;;;;;4.47;1.58;;;29.00;55.30;;;;;;4986114;28;20041;-79
2023/05/28 12:33:34;;;;;;;8.45;2.22;;;29.50;55.40;;;;;;4974930;28;20022;-80
2023/05/28 12:36:00;;;;;;;3.80;1.38;;;29.70;55.90;;;;;;4984104;28;20030;-80
2023/05/28 12:38:27;;;;;;;5.57;1.92;;;29.70;56.10;;;;;;4990536;28;20522;-79
2023/05/28 12:40:53;;;;;;;4.07;1.13;;;29.50;54.20;;;;;;4983877;28;20031;-79
2023/05/28 12:43:20;;;;;;;4.90;2.08;;;29.30;54.90;;;;;;4973237;28;20038;-79
2023/05/28 12:45:46;;;;;;;7.88;1.98;;;28.90;53.80;;;;;;4985453;28;20030;-78